createdAt,value
2019-03-06T00:00:11.616Z,7.70
2019-03-06T00:02:44.407Z,7.70
2019-03-06T00:05:15.680Z,7.70
2019-03-06T00:07:46.807Z,7.70
2019-03-06T00:10:27.570Z,7.70
2019-03-06T00:12:58.759Z,7.70
2019-03-06T00:15:30.338Z,7.80
2019-03-06T00:18:01.541Z,7.80
2019-03-06T00:20:32.895Z,7.80
2019-03-06T00:23:04.090Z,7.80
2019-03-06T00:25:34.979Z,7.80
2019-03-06T00:28:05.932Z,7.80
2019-03-06T00:30:36.820Z,7.80
2019-03-06T00:33:07.853Z,7.90
2019-03-06T00:35:43.163Z,7.90
2019-03-06T00:38:14.275Z,7.90
2019-03-06T00:40:53.327Z,7.90
2019-03-06T00:43:24.214Z,7.90
2019-03-06T00:45:55.407Z,8.00
2019-03-06T00:48:26.627Z,8.00
2019-03-06T00:50:57.767Z,8.00
2019-03-06T00:53:28.955Z,8.00
2019-03-06T00:56:00.091Z,8.00
2019-03-06T00:58:31.232Z,8.10
2019-03-06T01:01:02.247Z,8.10
2019-03-06T01:03:33.379Z,8.10
2019-03-06T01:06:04.660Z,8.10
2019-03-06T01:08:35.883Z,8.10
2019-03-06T01:11:08.375Z,8.10
2019-03-06T01:13:39.353Z,8.10
2019-03-06T01:16:11.555Z,8.10
2019-03-06T01:18:43.261Z,8.10
2019-03-06T01:21:15.006Z,8.10
2019-03-06T01:23:46.691Z,8.10
2019-03-06T01:26:17.827Z,8.10
2019-03-06T01:28:49.232Z,8.10
2019-03-06T01:31:21.198Z,8.10
2019-03-06T01:34:01.023Z,8.10
2019-03-06T01:37:03.361Z,8.20
2019-03-06T01:39:59.482Z,8.20
2019-03-06T01:42:36.483Z,8.10
2019-03-06T01:45:10.139Z,8.10
2019-03-06T01:47:41.277Z,8.10
2019-03-06T01:50:14.383Z,8.20
2019-03-06T01:52:45.787Z,8.10
2019-03-06T01:55:16.903Z,8.10
2019-03-06T01:57:48.047Z,8.10
2019-03-06T02:00:19.234Z,8.10
2019-03-06T02:02:51.033Z,8.10
2019-03-06T02:05:21.923Z,8.10
2019-03-06T02:07:52.883Z,8.10
2019-03-06T02:10:24.075Z,8.10
2019-03-06T02:12:55.211Z,8.10
2019-03-06T02:15:26.484Z,8.20
2019-03-06T02:17:57.875Z,8.20
2019-03-06T02:20:29.810Z,8.20
2019-03-06T02:23:03.610Z,8.20
2019-03-06T02:25:34.974Z,8.20
2019-03-06T02:28:06.106Z,8.20
2019-03-06T02:30:37.320Z,8.20
2019-03-06T02:33:08.211Z,8.20
2019-03-06T02:35:39.619Z,8.20
2019-03-06T02:38:11.089Z,8.30
2019-03-06T02:40:42.208Z,8.30
2019-03-06T02:43:13.345Z,8.30
2019-03-06T02:45:44.351Z,8.30
2019-03-06T02:48:16.341Z,8.30
2019-03-06T02:50:47.225Z,8.40
2019-03-06T02:53:18.353Z,8.40
2019-03-06T02:55:49.291Z,8.30
2019-03-06T02:58:24.856Z,8.30
2019-03-06T03:01:17.592Z,8.30
2019-03-06T03:04:06.411Z,8.40
2019-03-06T03:06:41.943Z,8.30
2019-03-06T03:09:17.880Z,8.40
2019-03-06T03:11:49.083Z,8.40
2019-03-06T03:14:21.659Z,8.40
2019-03-06T03:16:52.793Z,8.40
2019-03-06T03:19:23.936Z,8.40
2019-03-06T03:21:54.840Z,8.40
2019-03-06T03:24:25.914Z,8.40
2019-03-06T03:26:56.804Z,8.40
2019-03-06T03:29:28.018Z,8.40
2019-03-06T03:31:59.136Z,8.40
2019-03-06T03:34:30.548Z,8.40
2019-03-06T03:37:01.744Z,8.50
2019-03-06T03:39:32.959Z,8.50
2019-03-06T03:42:04.157Z,8.50
2019-03-06T03:44:35.315Z,8.50
2019-03-06T03:47:06.632Z,8.50
2019-03-06T03:49:38.040Z,8.50
2019-03-06T03:52:09.465Z,8.50
2019-03-06T03:54:40.592Z,8.50
2019-03-06T03:57:11.556Z,8.50
2019-03-06T03:59:43.025Z,8.50
2019-03-06T04:02:14.140Z,8.50
2019-03-06T04:04:45.429Z,8.50
2019-03-06T04:07:16.596Z,8.50
2019-03-06T04:09:47.484Z,8.50
2019-03-06T04:12:18.620Z,8.50
2019-03-06T04:14:50.027Z,8.50
2019-03-06T04:17:20.909Z,8.50
2019-03-06T04:19:52.051Z,8.50
2019-03-06T04:22:23.203Z,8.50
2019-03-06T04:24:54.340Z,8.50
2019-03-06T04:27:25.463Z,8.50
2019-03-06T04:29:56.963Z,8.50
2019-03-06T04:32:28.103Z,8.50
2019-03-06T04:34:59.243Z,8.50
2019-03-06T04:37:30.127Z,8.50
2019-03-06T04:40:01.020Z,8.50
2019-03-06T04:42:31.903Z,8.50
2019-03-06T04:45:03.067Z,8.50
2019-03-06T04:47:34.116Z,8.50
2019-03-06T04:50:05.907Z,8.50
2019-03-06T04:52:37.307Z,8.50
2019-03-06T04:55:08.687Z,8.50
2019-03-06T04:57:39.891Z,8.60
2019-03-06T05:00:11.724Z,8.60
2019-03-06T05:02:42.871Z,8.60
2019-03-06T05:05:14.147Z,8.50
2019-03-06T05:07:45.279Z,8.60
2019-03-06T05:10:16.767Z,8.60
2019-03-06T05:12:48.145Z,8.60
2019-03-06T05:15:19.752Z,8.50
2019-03-06T05:18:08.687Z,8.50
2019-03-06T05:20:39.827Z,8.50
2019-03-06T05:23:10.973Z,8.50
2019-03-06T05:25:42.119Z,8.50
2019-03-06T05:28:13.575Z,8.50
2019-03-06T05:30:44.512Z,8.40
2019-03-06T05:33:15.646Z,8.40
2019-03-06T05:36:23.051Z,8.40
2019-03-06T05:39:12.511Z,8.40
2019-03-06T05:41:43.923Z,8.40
2019-03-06T05:44:15.071Z,8.40
2019-03-06T05:46:46.261Z,8.40
2019-03-06T05:49:17.439Z,8.40
2019-03-06T05:51:48.589Z,8.40
2019-03-06T05:54:19.725Z,8.40
2019-03-06T05:56:50.619Z,8.40
2019-03-06T05:59:22.091Z,8.40
2019-03-06T06:01:53.252Z,8.40
2019-03-06T06:04:24.140Z,8.40
2019-03-06T06:06:55.290Z,8.40
2019-03-06T06:09:26.603Z,8.40
2019-03-06T06:11:57.755Z,8.40
2019-03-06T06:14:28.876Z,8.40
2019-03-06T06:17:00.931Z,8.40
2019-03-06T06:19:32.376Z,8.40
2019-03-06T06:22:12.723Z,8.40
2019-03-06T06:24:44.152Z,8.40
2019-03-06T06:27:15.582Z,8.40
2019-03-06T06:29:47.015Z,8.40
2019-03-06T06:32:18.680Z,8.40
2019-03-06T06:34:49.818Z,8.40
2019-03-06T06:37:20.954Z,8.40
2019-03-06T06:39:52.078Z,8.40
2019-03-06T06:42:22.964Z,8.40
2019-03-06T06:44:53.863Z,8.50
2019-03-06T06:47:25.008Z,8.50
2019-03-06T06:49:56.131Z,8.40
2019-03-06T06:52:40.221Z,8.50
2019-03-06T06:55:55.671Z,8.50
2019-03-06T06:58:40.762Z,8.50
2019-03-06T07:02:01.971Z,8.50
2019-03-06T07:04:54.303Z,8.50
2019-03-06T07:07:44.511Z,8.50
2019-03-06T07:10:34.984Z,8.50
2019-03-06T07:13:37.603Z,8.50
2019-03-06T07:16:22.899Z,8.40
2019-03-06T07:19:22.222Z,8.50
2019-03-06T07:22:18.579Z,8.50
2019-03-06T07:25:07.531Z,8.50
2019-03-06T07:27:52.971Z,8.50
2019-03-06T07:30:34.348Z,8.50
2019-03-06T07:33:15.411Z,8.50
2019-03-06T07:36:19.711Z,8.50
2019-03-06T07:39:01.942Z,8.60
2019-03-06T07:41:50.772Z,8.60
2019-03-06T07:44:39.575Z,8.60
2019-03-06T07:47:30.851Z,8.60
2019-03-06T07:50:19.739Z,8.60
2019-03-06T07:54:09.603Z,8.70
2019-03-06T07:56:48.032Z,8.70
2019-03-06T07:59:19.238Z,8.70
2019-03-06T08:02:02.803Z,8.80
2019-03-06T08:04:33.937Z,8.80
2019-03-06T08:07:15.972Z,8.90
2019-03-06T08:09:47.111Z,8.90
2019-03-06T08:12:32.666Z,9.00
2019-03-06T08:15:28.900Z,9.00
2019-03-06T08:18:19.126Z,9.00
2019-03-06T08:21:24.648Z,9.10
2019-03-06T08:24:02.095Z,9.10
2019-03-06T08:26:33.115Z,9.20
2019-03-06T08:29:04.472Z,9.20
2019-03-06T08:31:41.223Z,9.20
2019-03-06T08:34:12.455Z,9.20
2019-03-06T08:39:21.392Z,9.20
2019-03-06T08:41:52.953Z,9.20
2019-03-06T08:44:24.080Z,9.30
2019-03-06T08:47:13.020Z,9.30
2019-03-06T08:50:02.564Z,9.40
2019-03-06T08:52:46.891Z,9.50
2019-03-06T08:55:40.016Z,9.50
2019-03-06T08:58:34.838Z,9.60
2019-03-06T09:01:32.464Z,9.70
2019-03-06T09:04:30.171Z,9.80
2019-03-06T09:07:10.867Z,9.80
2019-03-06T09:10:01.162Z,9.90
2019-03-06T09:12:41.448Z,10.00
2019-03-06T09:15:31.404Z,10.00
2019-03-06T09:18:31.002Z,10.10
2019-03-06T09:21:26.898Z,10.10
2019-03-06T09:24:11.682Z,10.20
2019-03-06T09:27:00.346Z,10.30
2019-03-06T09:29:37.391Z,10.30
2019-03-06T09:32:30.719Z,10.40
2019-03-06T09:35:15.823Z,10.50
2019-03-06T09:38:16.727Z,10.50
2019-03-06T09:41:25.451Z,10.60
2019-03-06T09:44:15.673Z,10.70
2019-03-06T09:46:58.824Z,10.70
2019-03-06T09:49:47.940Z,10.80
2019-03-06T09:52:38.524Z,10.90
2019-03-06T09:55:17.911Z,11.00
2019-03-06T09:58:06.792Z,11.10
2019-03-06T10:01:06.449Z,11.10
2019-03-06T10:03:49.568Z,11.20
2019-03-06T10:06:57.920Z,11.30
2019-03-06T10:09:59.377Z,11.30
2019-03-06T10:12:47.507Z,11.20
2019-03-06T10:15:37.163Z,11.20
2019-03-06T10:18:12.339Z,11.20
2019-03-06T10:20:43.487Z,11.20
2019-03-06T10:23:15.490Z,11.20
2019-03-06T10:25:47.056Z,11.30
2019-03-06T10:28:27.751Z,11.30
2019-03-06T10:31:02.178Z,11.40
2019-03-06T10:33:26.791Z,11.40
2019-03-06T10:35:57.767Z,11.50
2019-03-06T10:38:29.165Z,11.60
2019-03-06T10:41:03.342Z,11.60
2019-03-06T10:43:34.611Z,11.70
2019-03-06T10:46:05.926Z,11.70
2019-03-06T10:48:37.129Z,11.80
2019-03-06T10:51:08.621Z,11.80
2019-03-06T10:53:41.461Z,11.90
2019-03-06T10:56:13.402Z,12.00
2019-03-06T10:58:44.667Z,12.00
2019-03-06T11:01:17.190Z,12.00
2019-03-06T11:03:57.835Z,12.00
2019-03-06T11:06:28.971Z,11.90
2019-03-06T11:09:00.086Z,12.00
2019-03-06T11:11:31.055Z,12.00
2019-03-06T11:14:06.178Z,12.10
2019-03-06T11:16:42.073Z,12.20
2019-03-06T11:19:08.109Z,12.20
2019-03-06T11:21:39.075Z,12.30
2019-03-06T11:24:10.279Z,12.20
2019-03-06T11:26:41.319Z,12.20
2019-03-06T11:29:12.756Z,12.30
2019-03-06T11:31:45.493Z,12.40
2019-03-06T11:34:17.191Z,12.50
2019-03-06T11:36:48.580Z,12.60
2019-03-06T11:39:19.609Z,12.60
2019-03-06T11:41:51.076Z,12.60
2019-03-06T11:44:22.030Z,12.60
2019-03-06T11:46:53.303Z,12.70
2019-03-06T11:49:24.443Z,12.70
2019-03-06T11:51:56.012Z,12.70
2019-03-06T11:54:27.148Z,12.80
2019-03-06T11:56:58.375Z,12.70
2019-03-06T11:59:30.275Z,12.80
2019-03-06T12:02:01.623Z,12.80
2019-03-06T12:04:32.807Z,12.90
2019-03-06T12:07:04.035Z,12.90
2019-03-06T12:09:35.320Z,12.90
2019-03-06T12:12:06.606Z,12.90
2019-03-06T12:14:38.799Z,13.00
2019-03-06T12:17:09.854Z,12.90
2019-03-06T12:19:41.312Z,12.90
2019-03-06T12:22:13.574Z,12.90
2019-03-06T12:24:44.952Z,12.90
2019-03-06T12:27:16.263Z,12.90
2019-03-06T12:29:47.650Z,12.90
2019-03-06T12:32:18.996Z,12.90
2019-03-06T12:34:50.603Z,13.00
2019-03-06T12:37:22.030Z,13.10
2019-03-06T12:39:53.343Z,13.10
2019-03-06T12:42:24.815Z,13.10
2019-03-06T12:44:57.032Z,13.10
2019-03-06T12:47:28.383Z,13.20
2019-03-06T12:50:05.422Z,13.20
2019-03-06T12:52:33.463Z,13.10
2019-03-06T12:55:04.994Z,13.10
2019-03-06T12:57:36.589Z,13.10
2019-03-06T13:00:16.202Z,13.10
2019-03-06T13:02:48.829Z,13.00
2019-03-06T13:05:21.146Z,13.00
2019-03-06T13:07:52.223Z,13.00
2019-03-06T13:10:23.419Z,13.00
2019-03-06T13:12:55.590Z,13.00
2019-03-06T13:15:26.788Z,12.90
2019-03-06T13:17:58.006Z,12.90
2019-03-06T13:20:29.347Z,12.90
2019-03-06T13:23:00.743Z,12.80
2019-03-06T13:25:33.487Z,12.80
2019-03-06T13:28:04.844Z,12.70
2019-03-06T13:30:36.316Z,12.70
2019-03-06T13:33:18.357Z,12.70
2019-03-06T13:35:49.532Z,12.60
2019-03-06T13:38:21.808Z,12.60
2019-03-06T13:40:52.916Z,12.50
2019-03-06T13:43:24.386Z,12.50
2019-03-06T13:45:54.995Z,12.50
2019-03-06T13:48:26.344Z,12.50
2019-03-06T13:50:57.619Z,12.40
2019-03-06T13:53:28.678Z,12.40
2019-03-06T13:55:59.796Z,12.30
2019-03-06T13:58:31.071Z,12.30
2019-03-06T14:01:02.485Z,12.30
2019-03-06T14:03:33.568Z,12.30
2019-03-06T14:06:05.242Z,12.30
2019-03-06T14:08:36.819Z,12.30
2019-03-06T14:11:08.970Z,12.30
2019-03-06T14:13:40.497Z,12.30
2019-03-06T14:16:11.880Z,12.30
2019-03-06T14:18:44.456Z,12.30
2019-03-06T14:21:15.446Z,12.20
2019-03-06T14:23:46.651Z,12.30
2019-03-06T14:26:18.604Z,12.30
2019-03-06T14:28:50.787Z,12.30
2019-03-06T14:31:23.246Z,12.30
2019-03-06T14:33:54.420Z,12.30
2019-03-06T14:36:27.413Z,12.30
2019-03-06T14:38:58.888Z,12.30
2019-03-06T14:41:30.539Z,12.20
2019-03-06T14:44:01.855Z,12.20
2019-03-06T14:46:32.799Z,12.10
2019-03-06T14:49:03.847Z,12.10
2019-03-06T14:51:34.980Z,12.10
2019-03-06T14:54:07.229Z,12.00
2019-03-06T14:56:38.435Z,12.10
2019-03-06T14:59:10.552Z,12.00
2019-03-06T15:01:41.675Z,12.00
2019-03-06T15:04:12.960Z,12.00
2019-03-06T15:06:44.364Z,12.00
2019-03-06T15:09:35.083Z,11.90
2019-03-06T15:12:06.371Z,11.90
2019-03-06T15:14:37.760Z,11.90
2019-03-06T15:17:09.791Z,11.90
2019-03-06T15:19:40.900Z,11.80
2019-03-06T15:22:12.603Z,11.80
2019-03-06T15:24:43.583Z,11.80
2019-03-06T15:27:14.743Z,11.80
2019-03-06T15:29:46.100Z,11.80
2019-03-06T15:32:17.476Z,11.90
2019-03-06T15:34:48.767Z,11.90
2019-03-06T15:37:21.119Z,11.90
2019-03-06T15:39:52.844Z,12.00
2019-03-06T15:42:25.975Z,12.00
2019-03-06T15:44:57.173Z,12.00
2019-03-06T15:47:33.642Z,12.00
2019-03-06T15:50:01.356Z,12.00
2019-03-06T15:52:32.824Z,12.00
2019-03-06T15:55:04.325Z,12.00
2019-03-06T15:57:35.975Z,12.00
2019-03-06T16:00:14.055Z,12.00
2019-03-06T16:02:45.175Z,12.00
2019-03-06T16:05:17.891Z,12.00
2019-03-06T16:07:49.449Z,12.00
2019-03-06T16:10:20.915Z,12.00
2019-03-06T16:12:52.127Z,12.00
2019-03-06T16:15:24.921Z,12.00
2019-03-06T16:17:57.170Z,12.00
2019-03-06T16:20:29.839Z,12.00
2019-03-06T16:23:00.883Z,12.00
2019-03-06T16:25:36.658Z,12.00
2019-03-06T16:28:07.428Z,12.00
2019-03-06T16:30:39.367Z,12.00
2019-03-06T16:33:10.706Z,12.00
2019-03-06T16:35:41.880Z,12.00
2019-03-06T16:38:13.203Z,12.00
2019-03-06T16:40:44.416Z,12.00
2019-03-06T16:43:15.692Z,12.00
2019-03-06T16:45:46.912Z,12.10
2019-03-06T16:48:18.470Z,12.10
2019-03-06T16:50:49.955Z,12.10
2019-03-06T16:53:20.955Z,12.10
2019-03-06T16:55:52.298Z,12.10
2019-03-06T16:58:24.083Z,12.10
2019-03-06T17:00:55.329Z,12.10
2019-03-06T17:03:26.387Z,12.00
2019-03-06T17:05:57.541Z,12.10
2019-03-06T17:08:28.857Z,12.10
2019-03-06T17:11:00.882Z,12.10
2019-03-06T17:13:32.104Z,12.00
2019-03-06T17:16:03.323Z,12.00
2019-03-06T17:18:36.463Z,12.00
2019-03-06T17:21:08.481Z,12.00
2019-03-06T17:23:39.928Z,11.90
2019-03-06T17:26:11.300Z,11.90
2019-03-06T17:28:42.291Z,11.80
2019-03-06T17:31:13.769Z,11.80
2019-03-06T17:33:45.020Z,11.80
2019-03-06T17:36:16.951Z,11.70
2019-03-06T17:38:49.244Z,11.70
2019-03-06T17:41:27.917Z,11.70
2019-03-06T17:44:03.057Z,11.70
2019-03-06T17:46:36.607Z,11.60
2019-03-06T17:49:11.531Z,11.60
2019-03-06T17:51:46.311Z,11.60
2019-03-06T17:54:21.758Z,11.50
2019-03-06T17:56:54.064Z,11.50
2019-03-06T17:59:26.628Z,11.50
2019-03-06T18:01:59.859Z,11.50
2019-03-06T18:04:32.954Z,11.50
2019-03-06T18:07:06.804Z,11.50
2019-03-06T18:09:38.378Z,11.50
2019-03-06T18:12:11.906Z,11.50
2019-03-06T18:14:43.303Z,11.50
2019-03-06T18:17:16.089Z,11.50
2019-03-06T18:19:48.259Z,11.50
2019-03-06T18:22:20.100Z,11.50
2019-03-06T18:24:51.758Z,11.50
2019-03-06T18:27:26.543Z,11.50
2019-03-06T18:29:58.478Z,11.50
2019-03-06T18:32:30.812Z,11.50
2019-03-06T18:35:08.518Z,11.50
2019-03-06T18:37:40.126Z,11.40
2019-03-06T18:40:15.190Z,11.40
2019-03-06T18:42:47.157Z,11.40
2019-03-06T18:45:19.088Z,11.40
2019-03-06T18:47:50.418Z,11.40
2019-03-06T18:50:24.123Z,11.40
2019-03-06T18:52:56.250Z,11.50
2019-03-06T18:55:27.752Z,11.50
2019-03-06T18:58:00.165Z,11.50
2019-03-06T19:00:33.767Z,11.50
2019-03-06T19:03:10.368Z,11.50
2019-03-06T19:05:44.660Z,11.50
2019-03-06T19:08:17.719Z,11.50
2019-03-06T19:10:48.988Z,11.40
2019-03-06T19:13:20.220Z,11.40
2019-03-06T19:15:51.427Z,11.50
2019-03-06T19:18:22.440Z,11.40
2019-03-06T19:20:54.667Z,11.50
2019-03-06T19:23:26.141Z,11.50
2019-03-06T19:25:57.620Z,11.50
2019-03-06T19:28:28.778Z,11.50
2019-03-06T19:31:00.407Z,11.50
2019-03-06T19:33:31.482Z,11.50
2019-03-06T19:36:02.683Z,11.60
2019-03-06T19:38:33.654Z,11.60
2019-03-06T19:41:05.454Z,11.60
2019-03-06T19:43:36.763Z,11.60
2019-03-06T19:46:08.070Z,11.70
2019-03-06T19:48:39.208Z,11.70
2019-03-06T19:51:11.476Z,11.60
2019-03-06T19:53:42.836Z,11.70
2019-03-06T19:56:13.816Z,11.70
2019-03-06T19:58:44.959Z,11.70
2019-03-06T20:01:16.123Z,11.70
2019-03-06T20:03:47.315Z,11.70
2019-03-06T20:06:26.809Z,11.70
2019-03-06T20:08:51.128Z,11.70
2019-03-06T20:11:23.704Z,11.70
2019-03-06T20:13:55.262Z,11.80
2019-03-06T20:16:26.839Z,11.80
2019-03-06T20:18:58.059Z,11.80
2019-03-06T20:21:29.039Z,11.80
2019-03-06T20:24:00.530Z,11.80
2019-03-06T20:26:33.835Z,11.80
2019-03-06T20:29:04.983Z,11.80
2019-03-06T20:31:36.200Z,11.80
2019-03-06T20:34:08.180Z,11.80
2019-03-06T20:36:39.500Z,11.80
2019-03-06T20:39:10.907Z,11.80
2019-03-06T20:41:43.664Z,11.80
2019-03-06T20:44:14.783Z,11.80
2019-03-06T20:46:46.055Z,11.80
2019-03-06T20:49:17.243Z,11.80
2019-03-06T20:51:48.783Z,11.80
2019-03-06T20:54:19.944Z,11.80
2019-03-06T20:56:51.223Z,11.80
2019-03-06T20:59:22.347Z,11.80
2019-03-06T21:01:53.563Z,11.80
2019-03-06T21:04:24.615Z,11.80
2019-03-06T21:06:55.598Z,11.80
2019-03-06T21:09:26.770Z,11.80
2019-03-06T21:11:57.914Z,11.80
2019-03-06T21:14:29.050Z,11.80
2019-03-06T21:17:00.260Z,11.80
2019-03-06T21:19:31.423Z,11.80
2019-03-06T21:22:02.331Z,11.80
2019-03-06T21:24:33.475Z,11.80
2019-03-06T21:27:05.923Z,11.90
2019-03-06T21:29:37.283Z,11.90
2019-03-06T21:32:08.701Z,11.80
2019-03-06T21:34:39.846Z,11.80
2019-03-06T21:37:12.278Z,11.80
2019-03-06T21:39:43.805Z,11.80
2019-03-06T21:42:14.739Z,11.80
2019-03-06T21:44:46.152Z,11.80
2019-03-06T21:47:17.119Z,11.80
2019-03-06T21:49:48.188Z,11.80
2019-03-06T21:52:20.311Z,11.80
2019-03-06T21:54:51.721Z,11.70
2019-03-06T21:57:22.923Z,11.70
2019-03-06T21:59:54.145Z,11.70
2019-03-06T22:02:26.199Z,11.70
2019-03-06T22:04:57.351Z,11.70
2019-03-06T22:07:29.811Z,11.70
2019-03-06T22:10:01.199Z,11.70
2019-03-06T22:12:33.711Z,11.70
2019-03-06T22:15:05.792Z,11.70
2019-03-06T22:17:37.051Z,11.70
2019-03-06T22:20:08.759Z,11.70
2019-03-06T22:22:39.714Z,11.70
2019-03-06T22:25:11.961Z,11.70
2019-03-06T22:27:43.183Z,11.70
2019-03-06T22:30:16.197Z,11.70
2019-03-06T22:32:47.500Z,11.70
2019-03-06T22:35:18.538Z,11.70
2019-03-06T22:37:49.800Z,11.60
2019-03-06T22:40:21.262Z,11.60
2019-03-06T22:42:52.167Z,11.60
2019-03-06T22:45:23.123Z,11.60
2019-03-06T22:47:54.271Z,11.70
2019-03-06T22:50:25.482Z,11.70
2019-03-06T22:52:57.961Z,11.70
2019-03-06T22:55:28.842Z,11.70
2019-03-06T22:57:59.988Z,11.70
2019-03-06T23:01:08.067Z,11.70
2019-03-06T23:03:40.855Z,11.70
2019-03-06T23:06:11.811Z,11.70
2019-03-06T23:08:43.053Z,11.70
2019-03-06T23:11:14.503Z,11.70
2019-03-06T23:13:45.970Z,11.70
2019-03-06T23:16:16.855Z,11.70
2019-03-06T23:18:48.250Z,11.70
2019-03-06T23:21:19.146Z,11.70
2019-03-06T23:23:50.374Z,11.70
2019-03-06T23:26:21.831Z,11.70
2019-03-06T23:28:52.975Z,11.70
2019-03-06T23:31:24.188Z,11.70
2019-03-06T23:33:55.654Z,11.80
2019-03-06T23:36:26.639Z,11.80
2019-03-06T23:38:57.785Z,11.80
2019-03-06T23:41:29.083Z,11.80
2019-03-06T23:43:59.978Z,11.80
2019-03-06T23:46:31.439Z,11.70
2019-03-06T23:49:02.579Z,11.70
2019-03-06T23:51:37.204Z,11.70
2019-03-06T23:54:08.588Z,11.70
2019-03-06T23:56:39.715Z,11.70
2019-03-06T23:59:10.862Z,11.80
